createdAt,value
2017-09-20T00:00:09.952Z,81.53
2017-09-20T00:02:10.913Z,84.63
2017-09-20T00:04:11.873Z,83.63
2017-09-20T00:06:12.844Z,88.93
2017-09-20T00:08:13.815Z,89.97
2017-09-20T00:10:14.769Z,100.00
2017-09-20T00:12:15.733Z,103.90
2017-09-20T00:14:16.695Z,93.20
2017-09-20T00:16:17.668Z,94.67
2017-09-20T00:18:19.379Z,101.40
2017-09-20T00:20:20.328Z,92.10
2017-09-20T00:22:21.292Z,89.07
2017-09-20T00:24:22.236Z,98.40
2017-09-20T00:26:23.274Z,88.37
2017-09-20T00:28:24.240Z,99.20
2017-09-20T00:30:25.941Z,91.47
2017-09-20T00:32:26.900Z,89.70
2017-09-20T00:34:27.862Z,98.93
2017-09-20T00:36:28.816Z,93.40
2017-09-20T00:38:29.777Z,90.40
2017-09-20T00:40:30.763Z,90.50
2017-09-20T00:42:31.719Z,93.37
2017-09-20T00:44:39.469Z,93.83
2017-09-20T00:46:40.438Z,84.80
2017-09-20T00:48:42.136Z,84.60
2017-09-20T00:50:43.095Z,89.90
2017-09-20T00:52:44.068Z,94.70
2017-09-20T00:54:45.021Z,95.30
2017-09-20T00:56:45.991Z,89.97
2017-09-20T00:58:47.712Z,81.57
2017-09-20T01:00:48.700Z,95.30
2017-09-20T01:02:50.401Z,88.03
2017-09-20T01:04:51.368Z,88.23
2017-09-20T01:06:52.350Z,86.70
2017-09-20T01:08:54.068Z,86.30
2017-09-20T01:10:55.020Z,77.10
2017-09-20T01:12:55.985Z,80.50
2017-09-20T01:14:56.945Z,86.35
2017-09-20T01:16:58.650Z,71.77
2017-09-20T01:18:59.608Z,82.57
2017-09-20T01:21:13.117Z,74.17
2017-09-20T01:23:28.413Z,68.33
2017-09-20T01:25:29.380Z,62.90
2017-09-20T01:27:30.354Z,66.30
2017-09-20T01:29:31.368Z,69.80
2017-09-20T01:31:32.333Z,75.20
2017-09-20T01:33:33.348Z,89.00
2017-09-20T01:35:34.296Z,67.37
2017-09-20T01:37:35.260Z,65.83
2017-09-20T01:39:36.253Z,75.43
2017-09-20T01:41:37.965Z,68.70
2017-09-20T01:43:38.921Z,70.60
2017-09-20T01:45:39.893Z,61.77
2017-09-20T01:47:40.854Z,68.93
2017-09-20T01:49:42.576Z,71.17
2017-09-20T01:51:43.557Z,65.50
2017-09-20T01:53:44.492Z,70.43
2017-09-20T01:55:45.469Z,61.80
2017-09-20T01:57:46.515Z,71.13
2017-09-20T01:59:48.329Z,72.43
2017-09-20T02:01:49.293Z,64.03
2017-09-20T02:03:50.253Z,69.27
2017-09-20T02:05:51.207Z,59.33
2017-09-20T02:07:52.913Z,68.47
2017-09-20T02:09:53.881Z,62.23
2017-09-20T02:11:54.857Z,69.97
2017-09-20T02:13:56.577Z,63.37
2017-09-20T02:15:57.542Z,81.13
2017-09-20T02:17:58.521Z,70.67
2017-09-20T02:20:00.245Z,65.93
2017-09-20T02:22:01.204Z,65.80
2017-09-20T02:24:02.153Z,64.10
2017-09-20T02:26:03.121Z,60.03
2017-09-20T02:28:04.827Z,67.47
2017-09-20T02:30:05.793Z,66.73
2017-09-20T02:32:06.762Z,62.70
2017-09-20T02:34:07.748Z,60.07
2017-09-20T02:36:08.704Z,54.20
2017-09-20T02:38:09.662Z,55.37
2017-09-20T02:40:10.650Z,66.03
2017-09-20T02:42:11.645Z,60.73
2017-09-20T02:44:12.616Z,58.40
2017-09-20T02:46:13.608Z,65.07
2017-09-20T02:48:15.304Z,57.37
2017-09-20T02:50:16.281Z,53.67
2017-09-20T02:52:17.251Z,53.57
2017-09-20T02:54:18.957Z,64.70
2017-09-20T02:56:19.918Z,61.70
2017-09-20T02:58:20.884Z,58.60
2017-09-20T03:00:21.869Z,68.30
2017-09-20T03:02:22.833Z,59.17
2017-09-20T03:04:23.789Z,62.03
2017-09-20T03:06:24.772Z,60.23
2017-09-20T03:08:25.741Z,69.27
2017-09-20T03:10:27.444Z,58.30
2017-09-20T03:12:28.401Z,61.33
2017-09-20T03:14:29.356Z,69.00
2017-09-20T03:16:30.325Z,65.23
2017-09-20T03:18:31.297Z,61.63
2017-09-20T03:20:32.266Z,54.80
2017-09-20T03:22:33.224Z,53.40
2017-09-20T03:24:34.180Z,56.90
2017-09-20T03:26:35.172Z,59.17
2017-09-20T03:28:36.161Z,67.30
2017-09-20T03:30:37.111Z,63.43
2017-09-20T03:32:38.088Z,61.83
2017-09-20T03:34:39.042Z,72.13
2017-09-20T03:36:40.746Z,60.87
2017-09-20T03:38:41.719Z,57.73
2017-09-20T03:40:42.681Z,60.13
2017-09-20T03:42:43.649Z,61.47
2017-09-20T03:44:45.340Z,59.37
2017-09-20T03:46:46.294Z,67.07
2017-09-20T03:48:47.261Z,56.40
2017-09-20T03:50:48.225Z,64.63
2017-09-20T03:52:49.937Z,53.93
2017-09-20T03:54:50.893Z,61.00
2017-09-20T03:56:51.840Z,63.77
2017-09-20T03:58:52.828Z,62.83
2017-09-20T04:00:53.794Z,61.17
2017-09-20T04:02:55.500Z,57.17
2017-09-20T04:04:56.452Z,64.17
2017-09-20T04:06:57.413Z,55.37
2017-09-20T04:08:58.386Z,70.17
2017-09-20T04:11:00.084Z,61.50
2017-09-20T04:13:01.070Z,65.73
2017-09-20T04:15:02.069Z,56.57
2017-09-20T04:17:03.035Z,54.63
2017-09-20T04:19:04.005Z,53.60
2017-09-20T04:21:04.979Z,56.20
2017-09-20T04:23:05.948Z,48.97
2017-09-20T04:25:07.653Z,57.23
2017-09-20T04:27:08.616Z,50.73
2017-09-20T04:29:10.329Z,56.50
2017-09-20T04:31:11.283Z,49.30
2017-09-20T04:33:12.274Z,55.27
2017-09-20T04:35:13.249Z,52.30
2017-09-20T04:37:14.973Z,58.77
2017-09-20T04:39:15.955Z,53.60
2017-09-20T04:41:17.656Z,51.57
2017-09-20T04:43:18.633Z,65.57
2017-09-20T04:45:19.604Z,53.67
2017-09-20T04:47:20.566Z,55.30
2017-09-20T04:49:22.276Z,54.70
2017-09-20T04:51:23.319Z,48.47
2017-09-20T04:53:24.279Z,66.77
2017-09-20T04:55:25.271Z,54.73
2017-09-20T04:57:26.982Z,45.47
2017-09-20T04:59:27.950Z,44.33
2017-09-20T05:01:28.944Z,44.47
2017-09-20T05:03:29.913Z,46.73
2017-09-20T05:05:30.885Z,43.80
2017-09-20T05:07:31.848Z,48.53
2017-09-20T05:09:33.556Z,47.87
2017-09-20T05:11:34.513Z,49.40
2017-09-20T05:13:35.480Z,51.17
2017-09-20T05:15:36.453Z,55.43
2017-09-20T05:17:37.448Z,48.00
2017-09-20T05:19:38.400Z,44.33
2017-09-20T05:21:39.376Z,48.70
2017-09-20T05:23:40.338Z,46.13
2017-09-20T05:25:42.070Z,41.03
2017-09-20T05:27:43.044Z,42.20
2017-09-20T05:29:44.021Z,46.67
2017-09-20T05:31:44.992Z,48.40
2017-09-20T05:33:46.006Z,47.97
2017-09-20T05:35:47.709Z,41.23
2017-09-20T05:37:48.684Z,44.30
2017-09-20T05:39:49.676Z,52.13
2017-09-20T05:41:50.648Z,44.83
2017-09-20T05:43:51.592Z,48.40
2017-09-20T05:45:52.594Z,41.60
2017-09-20T05:47:54.305Z,53.20
2017-09-20T05:49:55.272Z,52.47
2017-09-20T05:51:56.248Z,48.70
2017-09-20T05:53:57.958Z,47.37
2017-09-20T05:55:58.916Z,45.75
2017-09-20T05:57:59.883Z,47.80
2017-09-20T06:00:00.841Z,42.30
2017-09-20T06:02:02.554Z,49.10
2017-09-20T06:04:03.518Z,48.50
2017-09-20T06:06:04.495Z,48.00
2017-09-20T06:08:06.197Z,38.50
2017-09-20T06:10:07.178Z,45.53
2017-09-20T06:12:08.153Z,40.70
2017-09-20T06:14:09.845Z,43.30
2017-09-20T06:16:10.808Z,36.97
2017-09-20T06:18:11.777Z,42.10
2017-09-20T06:20:12.733Z,44.07
2017-09-20T06:22:13.708Z,37.23
2017-09-20T06:24:15.397Z,47.13
2017-09-20T06:26:16.368Z,44.67
2017-09-20T06:28:17.347Z,48.27
2017-09-20T06:30:19.049Z,48.03
2017-09-20T06:32:20.022Z,45.00
2017-09-20T06:34:20.982Z,59.67
2017-09-20T06:36:21.933Z,45.17
2017-09-20T06:38:22.901Z,39.60
2017-09-20T06:40:24.614Z,40.97
2017-09-20T06:42:25.570Z,46.17
2017-09-20T06:44:26.548Z,46.47
2017-09-20T06:46:28.253Z,39.17
2017-09-20T06:48:29.222Z,41.43
2017-09-20T06:50:30.210Z,42.67
2017-09-20T06:52:31.901Z,49.27
2017-09-20T06:54:32.865Z,47.03
2017-09-20T06:56:33.840Z,47.50
2017-09-20T06:58:34.817Z,57.33
2017-09-20T07:00:36.534Z,50.53
2017-09-20T07:02:37.504Z,50.43
2017-09-20T07:04:38.460Z,51.60
2017-09-20T07:06:40.177Z,54.87
2017-09-20T07:08:41.131Z,55.20
2017-09-20T07:10:42.104Z,51.73
2017-09-20T07:12:43.056Z,55.30
2017-09-20T07:14:44.026Z,51.30
2017-09-20T07:16:45.734Z,48.13
2017-09-20T07:18:46.701Z,54.97
2017-09-20T07:20:47.669Z,59.83
2017-09-20T07:22:49.361Z,51.60
2017-09-20T07:24:50.340Z,50.73
2017-09-20T07:26:51.307Z,58.97
2017-09-20T07:28:53.027Z,44.47
2017-09-20T07:30:53.982Z,54.20
2017-09-20T07:32:54.958Z,53.60
2017-09-20T07:34:55.925Z,56.30
2017-09-20T07:36:57.636Z,51.30
2017-09-20T07:38:58.593Z,51.33
2017-09-20T07:40:59.565Z,54.73
2017-09-20T07:43:00.541Z,48.97
2017-09-20T07:45:01.497Z,50.23
2017-09-20T07:47:02.448Z,42.80
2017-09-20T07:49:03.424Z,49.07
2017-09-20T07:51:05.173Z,46.90
2017-09-20T07:53:06.133Z,47.93
2017-09-20T07:55:07.098Z,45.87
2017-09-20T07:57:08.058Z,38.93
2017-09-20T07:59:09.016Z,40.83
2017-09-20T08:01:10.704Z,36.07
2017-09-20T08:03:11.668Z,37.33
2017-09-20T08:05:12.620Z,38.70
2017-09-20T08:07:13.585Z,32.10
2017-09-20T08:09:14.557Z,39.17
2017-09-20T08:11:16.248Z,41.37
2017-09-20T08:13:17.216Z,31.23
2017-09-20T08:15:18.164Z,42.57
2017-09-20T08:17:19.121Z,36.83
2017-09-20T08:19:20.104Z,28.47
2017-09-20T08:21:21.797Z,26.03
2017-09-20T08:23:22.761Z,25.90
2017-09-20T08:25:23.728Z,26.40
2017-09-20T08:27:24.686Z,22.67
2017-09-20T08:29:25.648Z,22.03
2017-09-20T08:31:27.349Z,21.00
2017-09-20T08:33:28.318Z,26.30
2017-09-20T08:35:29.279Z,30.40
2017-09-20T08:37:30.221Z,26.50
2017-09-20T08:39:31.180Z,22.63
2017-09-20T08:41:32.116Z,34.40
2017-09-20T08:43:33.079Z,28.63
2017-09-20T08:45:34.034Z,29.40
2017-09-20T08:47:35.716Z,20.47
2017-09-20T08:49:36.653Z,27.03
2017-09-20T08:51:38.359Z,28.10
2017-09-20T08:53:39.313Z,25.77
2017-09-20T08:55:40.290Z,27.77
2017-09-20T08:57:41.232Z,23.40
2017-09-20T08:59:42.173Z,22.80
2017-09-20T09:01:43.130Z,23.20
2017-09-20T09:03:44.805Z,18.77
2017-09-20T09:05:46.500Z,23.13
2017-09-20T09:07:47.460Z,23.83
2017-09-20T09:09:48.422Z,20.70
2017-09-20T09:11:49.373Z,23.50
2017-09-20T09:13:50.338Z,22.30
2017-09-20T09:15:51.294Z,18.90
2017-09-20T09:17:52.984Z,28.23
2017-09-20T09:19:54.672Z,22.73
2017-09-20T09:21:55.673Z,16.00
2017-09-20T09:23:57.367Z,20.73
2017-09-20T09:25:58.320Z,21.17
2017-09-20T09:27:59.295Z,17.30
2017-09-20T09:30:00.260Z,16.10
2017-09-20T09:32:01.961Z,13.80
2017-09-20T09:34:02.909Z,13.20
2017-09-20T09:36:03.885Z,13.53
2017-09-20T09:38:04.833Z,17.23
2017-09-20T09:40:05.800Z,13.97
2017-09-20T09:42:06.756Z,24.10
2017-09-20T09:44:08.461Z,14.40
2017-09-20T09:46:09.409Z,15.00
2017-09-20T09:48:10.365Z,18.47
2017-09-20T09:50:11.322Z,13.23
2017-09-20T09:52:12.285Z,13.00
2017-09-20T09:54:13.232Z,18.60
2017-09-20T09:56:14.181Z,17.00
2017-09-20T09:58:15.876Z,12.13
2017-09-20T10:00:16.824Z,13.93
2017-09-20T10:02:17.781Z,14.03
2017-09-20T10:04:18.719Z,13.67
2017-09-20T10:06:19.668Z,12.90
2017-09-20T10:08:20.625Z,17.50
2017-09-20T10:10:21.585Z,7.57
2017-09-20T10:12:22.539Z,10.73
2017-09-20T10:14:23.498Z,13.60
2017-09-20T10:16:24.442Z,9.87
2017-09-20T10:18:25.398Z,7.33
2017-09-20T10:20:26.349Z,13.17
2017-09-20T10:22:27.306Z,9.63
2017-09-20T10:24:28.992Z,11.33
2017-09-20T10:26:29.933Z,7.60
2017-09-20T10:28:30.885Z,10.57
2017-09-20T10:30:31.833Z,8.63
2017-09-20T10:32:32.776Z,13.20
2017-09-20T10:34:33.732Z,12.30
2017-09-20T10:36:34.693Z,13.17
2017-09-20T10:38:35.647Z,12.20
2017-09-20T10:40:36.600Z,10.53
2017-09-20T10:42:37.555Z,12.23
2017-09-20T10:44:38.524Z,13.27
2017-09-20T10:46:40.229Z,20.80
2017-09-20T10:48:41.186Z,11.60
2017-09-20T10:50:42.900Z,12.20
2017-09-20T10:52:44.598Z,11.67
2017-09-20T10:54:45.557Z,14.17
2017-09-20T10:56:46.511Z,12.93
2017-09-20T10:58:47.472Z,16.93
2017-09-20T11:00:48.421Z,22.40
2017-09-20T11:02:49.360Z,12.03
2017-09-20T11:04:50.316Z,16.80
2017-09-20T11:06:51.262Z,11.77
2017-09-20T11:08:52.207Z,11.20
2017-09-20T11:10:53.156Z,18.20
2017-09-20T11:12:54.110Z,12.20
2017-09-20T11:14:55.797Z,20.23
2017-09-20T11:16:56.758Z,8.43
2017-09-20T11:18:57.720Z,12.17
2017-09-20T11:20:58.673Z,15.73
2017-09-20T11:22:59.628Z,13.13
2017-09-20T11:25:00.585Z,9.73
2017-09-20T11:27:01.577Z,10.90
2017-09-20T11:29:02.541Z,11.53
2017-09-20T11:31:03.492Z,11.70
2017-09-20T11:33:04.440Z,10.10
2017-09-20T11:35:05.388Z,9.70
2017-09-20T11:37:06.340Z,14.03
2017-09-20T11:39:07.300Z,13.43
2017-09-20T11:41:08.245Z,10.97
2017-09-20T11:43:09.193Z,12.13
2017-09-20T11:45:10.140Z,9.27
2017-09-20T11:47:11.106Z,12.77
2017-09-20T11:49:12.790Z,14.87
2017-09-20T11:51:13.736Z,13.73
2017-09-20T11:53:14.672Z,9.40
2017-09-20T11:55:16.371Z,16.00
2017-09-20T11:57:17.327Z,20.80
2017-09-20T11:59:18.353Z,12.20
2017-09-20T12:01:19.316Z,12.73
2017-09-20T12:03:20.265Z,12.53
2017-09-20T12:05:21.224Z,14.97
2017-09-20T12:07:22.176Z,10.23
2017-09-20T12:09:23.149Z,9.03
2017-09-20T12:11:24.853Z,13.13
2017-09-20T12:13:25.805Z,14.07
2017-09-20T12:15:26.773Z,16.47
2017-09-20T12:17:27.721Z,14.13
2017-09-20T12:19:28.680Z,13.97
2017-09-20T12:21:29.654Z,15.27
2017-09-20T12:23:30.617Z,11.90
2017-09-20T12:25:31.573Z,16.33
2017-09-20T12:27:32.533Z,14.10
2017-09-20T12:29:33.476Z,14.53
2017-09-20T12:31:34.446Z,11.57
2017-09-20T12:33:35.409Z,12.17
2017-09-20T12:35:37.105Z,13.20
2017-09-20T12:37:38.077Z,14.10
2017-09-20T12:39:39.026Z,11.60
2017-09-20T12:41:40.007Z,14.43
2017-09-20T12:43:41.705Z,13.40
2017-09-20T12:45:42.669Z,11.90
2017-09-20T12:47:43.644Z,9.80
2017-09-20T12:49:44.609Z,10.70
2017-09-20T12:51:46.320Z,14.17
2017-09-20T12:53:47.285Z,11.67
2017-09-20T12:55:48.250Z,15.60
2017-09-20T12:57:49.321Z,15.33
2017-09-20T12:59:54.192Z,10.87
2017-09-20T13:01:55.273Z,14.77
2017-09-20T13:03:56.229Z,13.87
2017-09-20T13:05:57.188Z,11.23
2017-09-20T13:07:58.913Z,12.60
2017-09-20T13:09:59.860Z,10.77
2017-09-20T13:12:00.832Z,13.00
2017-09-20T13:14:04.261Z,12.97
2017-09-20T13:16:05.948Z,10.93
2017-09-20T13:18:06.896Z,13.33
2017-09-20T13:20:07.838Z,14.90
2017-09-20T13:22:09.750Z,10.50
2017-09-20T13:24:10.805Z,11.27
2017-09-20T13:26:11.763Z,10.77
2017-09-20T13:28:13.469Z,13.97
2017-09-20T13:30:14.425Z,13.90
2017-09-20T13:32:15.384Z,10.50
2017-09-20T13:34:16.414Z,10.33
2017-09-20T13:36:17.352Z,16.20
2017-09-20T13:38:18.304Z,9.23
2017-09-20T13:40:19.256Z,10.07
2017-09-20T13:42:20.204Z,10.87
2017-09-20T13:44:21.900Z,12.37
2017-09-20T13:46:22.849Z,11.17
2017-09-20T13:48:23.801Z,9.80
2017-09-20T13:50:25.513Z,15.47
2017-09-20T13:52:26.474Z,10.43
2017-09-20T13:54:27.449Z,9.37
2017-09-20T13:56:28.383Z,11.93
2017-09-20T13:58:29.334Z,14.77
2017-09-20T14:00:30.303Z,14.10
2017-09-20T14:02:31.992Z,13.70
2017-09-20T14:04:32.948Z,14.13
2017-09-20T14:06:33.892Z,18.40
2017-09-20T14:08:34.852Z,16.80
2017-09-20T14:10:35.873Z,11.77
2017-09-20T14:12:36.833Z,14.50
2017-09-20T14:14:37.810Z,17.63
2017-09-20T14:16:38.757Z,23.37
2017-09-20T14:18:39.712Z,15.70
2017-09-20T14:20:40.657Z,16.73
2017-09-20T14:22:41.618Z,17.45
2017-09-20T14:24:43.308Z,15.80
2017-09-20T14:26:44.259Z,17.33
2017-09-20T14:28:45.217Z,16.80
2017-09-20T14:30:46.164Z,15.07
2017-09-20T14:32:47.118Z,16.43
2017-09-20T14:34:48.070Z,15.20
2017-09-20T14:36:49.021Z,21.63
2017-09-20T14:38:49.968Z,17.47
2017-09-20T14:40:50.925Z,19.83
2017-09-20T14:42:51.889Z,20.70
2017-09-20T14:44:53.621Z,18.90
2017-09-20T14:46:54.561Z,25.13
2017-09-20T14:48:55.507Z,17.73
2017-09-20T14:50:56.468Z,17.77
2017-09-20T14:52:57.414Z,21.43
2017-09-20T14:54:58.372Z,25.20
2017-09-20T14:56:59.312Z,22.23
2017-09-20T14:59:00.293Z,24.77
2017-09-20T15:01:01.244Z,23.30
2017-09-20T15:03:02.189Z,21.03
2017-09-20T15:05:03.148Z,19.17
2017-09-20T15:07:04.092Z,23.33
2017-09-20T15:09:05.032Z,18.93
2017-09-20T15:11:06.221Z,18.57
2017-09-20T15:13:07.160Z,19.50
2017-09-20T15:15:08.117Z,21.77
2017-09-20T15:17:09.080Z,23.63
2017-09-20T15:19:10.024Z,23.13
2017-09-20T15:21:10.968Z,23.00
2017-09-20T15:23:11.932Z,24.60
2017-09-20T15:25:13.666Z,22.77
2017-09-20T15:27:14.627Z,21.30
2017-09-20T15:29:15.714Z,22.47
2017-09-20T15:31:16.673Z,24.17
2017-09-20T15:33:17.627Z,25.33
2017-09-20T15:35:18.576Z,26.20
2017-09-20T15:37:19.524Z,27.40
2017-09-20T15:39:20.483Z,26.50
2017-09-20T15:41:21.461Z,25.40
2017-09-20T15:43:23.152Z,22.30
2017-09-20T15:45:24.095Z,25.80
2017-09-20T15:47:25.033Z,23.60
2017-09-20T15:49:25.977Z,29.70
2017-09-20T15:51:26.955Z,24.30
2017-09-20T15:53:28.005Z,25.40
2017-09-20T15:55:28.964Z,26.07
2017-09-20T15:57:29.924Z,28.70
2017-09-20T15:59:30.872Z,25.77
2017-09-20T16:01:31.824Z,23.20
2017-09-20T16:03:32.777Z,26.30
2017-09-20T16:05:34.462Z,28.33
2017-09-20T16:07:35.420Z,25.97
2017-09-20T16:09:36.364Z,30.67
2017-09-20T16:11:37.333Z,36.97
2017-09-20T16:13:38.277Z,29.97
2017-09-20T16:15:39.229Z,27.23
2017-09-20T16:17:40.209Z,28.63
2017-09-20T16:19:41.160Z,31.97
2017-09-20T16:21:42.850Z,32.80
2017-09-20T16:23:43.836Z,32.57
2017-09-20T16:25:44.776Z,38.30
2017-09-20T16:27:50.605Z,30.07
2017-09-20T16:29:51.618Z,32.10
2017-09-20T16:31:53.316Z,33.13
2017-09-20T16:33:54.271Z,34.17
2017-09-20T16:35:55.272Z,27.13
2017-09-20T16:37:56.233Z,35.83
2017-09-20T16:39:57.929Z,29.63
2017-09-20T16:41:58.905Z,28.80
2017-09-20T16:43:59.849Z,35.00
2017-09-20T16:46:00.793Z,35.90
2017-09-20T16:48:01.736Z,33.17
2017-09-20T16:50:03.437Z,34.17
2017-09-20T16:52:05.167Z,32.80
2017-09-20T16:54:06.129Z,30.13
2017-09-20T16:56:07.085Z,31.97
2017-09-20T16:58:08.067Z,36.50
2017-09-20T17:00:09.114Z,35.30
2017-09-20T17:02:10.077Z,33.20
2017-09-20T17:04:11.015Z,36.17
2017-09-20T17:06:11.960Z,36.13
2017-09-20T17:08:12.970Z,38.50
2017-09-20T17:10:14.696Z,31.17
2017-09-20T17:12:15.732Z,35.67
2017-09-20T17:14:16.792Z,34.97
2017-09-20T17:16:17.732Z,35.37
2017-09-20T17:18:18.704Z,36.53
2017-09-20T17:20:19.653Z,34.33
2017-09-20T17:22:20.637Z,37.00
2017-09-20T17:24:22.337Z,36.93
2017-09-20T17:26:23.289Z,38.20
2017-09-20T17:28:24.246Z,43.33
2017-09-20T17:30:25.192Z,42.83
2017-09-20T17:32:26.140Z,35.30
2017-09-20T17:34:27.133Z,35.80
2017-09-20T17:36:28.153Z,41.00
2017-09-20T17:38:29.846Z,37.23
2017-09-20T17:40:31.613Z,37.57
2017-09-20T17:42:32.573Z,42.37
2017-09-20T17:44:33.533Z,41.20
2017-09-20T17:46:34.499Z,38.80
2017-09-20T17:48:35.444Z,43.40
2017-09-20T17:50:37.142Z,35.88
2017-09-20T17:52:38.149Z,38.07
2017-09-20T17:54:39.105Z,40.83
2017-09-20T17:56:40.044Z,33.80
2017-09-20T17:58:40.993Z,45.93
2017-09-20T18:00:41.945Z,40.57
2017-09-20T18:02:42.892Z,40.63
2017-09-20T18:04:43.840Z,41.00
2017-09-20T18:06:44.844Z,41.83
2017-09-20T18:08:45.789Z,41.17
2017-09-20T18:10:46.768Z,47.77
2017-09-20T18:12:47.723Z,45.17
2017-09-20T18:14:48.677Z,42.97
2017-09-20T18:16:50.401Z,45.30
2017-09-20T18:18:51.363Z,40.30
2017-09-20T18:20:52.433Z,43.83
2017-09-20T18:22:54.121Z,45.80
2017-09-20T18:24:55.168Z,45.47
2017-09-20T18:26:56.112Z,42.53
2017-09-20T18:28:57.053Z,39.87
2017-09-20T18:30:58.001Z,43.30
2017-09-20T18:32:59.008Z,42.50
2017-09-20T18:35:00.006Z,53.43
2017-09-20T18:37:00.949Z,41.20
2017-09-20T18:39:01.919Z,44.63
2017-09-20T18:41:02.872Z,40.83
2017-09-20T18:43:03.829Z,42.40
2017-09-20T18:45:04.788Z,49.23
2017-09-20T18:47:05.757Z,46.77
2017-09-20T18:49:07.477Z,45.50
2017-09-20T18:51:08.449Z,43.97
2017-09-20T18:53:09.394Z,45.27
2017-09-20T18:55:10.340Z,45.33
2017-09-20T18:57:11.289Z,46.93
2017-09-20T18:59:12.237Z,44.73
2017-09-20T19:01:13.195Z,45.87
2017-09-20T19:03:14.873Z,45.83
2017-09-20T19:05:15.821Z,44.63
2017-09-20T19:07:16.778Z,48.40
2017-09-20T19:09:17.729Z,45.70
2017-09-20T19:11:18.684Z,43.57
2017-09-20T19:13:19.628Z,40.73
2017-09-20T19:15:20.584Z,50.13
2017-09-20T19:17:21.546Z,52.80
2017-09-20T19:19:22.504Z,58.43
2017-09-20T19:21:23.474Z,49.43
2017-09-20T19:23:25.184Z,43.03
2017-09-20T19:25:26.137Z,55.93
2017-09-20T19:27:27.097Z,48.63
2017-09-20T19:29:28.056Z,43.90
2017-09-20T19:31:29.018Z,42.10
2017-09-20T19:33:30.719Z,58.13
2017-09-20T19:35:31.673Z,49.87
2017-09-20T19:37:32.632Z,47.80
2017-09-20T19:39:34.419Z,42.07
2017-09-20T19:41:35.373Z,42.77
2017-09-20T19:43:37.073Z,46.40
2017-09-20T19:45:38.040Z,47.83
2017-09-20T19:47:38.996Z,46.30
2017-09-20T19:49:39.943Z,50.00
2017-09-20T19:51:40.905Z,52.37
2017-09-20T19:53:41.864Z,46.40
2017-09-20T19:55:43.558Z,51.33
2017-09-20T19:57:44.532Z,45.47
2017-09-20T19:59:45.487Z,42.37
2017-09-20T20:01:46.449Z,47.30
2017-09-20T20:03:47.402Z,53.47
2017-09-20T20:05:48.362Z,44.40
2017-09-20T20:07:50.057Z,46.97
2017-09-20T20:09:51.009Z,39.03
2017-09-20T20:11:51.969Z,43.45
2017-09-20T20:13:52.936Z,41.60
2017-09-20T20:15:53.938Z,44.97
2017-09-20T20:17:54.893Z,39.50
2017-09-20T20:19:55.845Z,42.63
2017-09-20T20:21:58.731Z,42.93
2017-09-20T20:23:59.697Z,42.10
2017-09-20T20:26:00.643Z,43.30
2017-09-20T20:28:01.604Z,41.47
2017-09-20T20:30:02.569Z,51.80
2017-09-20T20:32:04.265Z,40.37
2017-09-20T20:34:05.298Z,41.37
2017-09-20T20:36:06.261Z,30.47
2017-09-20T20:38:07.222Z,33.87
2017-09-20T20:40:08.188Z,35.20
2017-09-20T20:42:09.151Z,34.63
2017-09-20T20:44:10.113Z,38.70
2017-09-20T20:46:11.812Z,41.00
2017-09-20T20:48:12.765Z,40.50
2017-09-20T20:50:13.735Z,47.03
2017-09-20T20:52:15.421Z,36.90
2017-09-20T20:54:16.397Z,35.70
2017-09-20T20:56:17.360Z,35.40
2017-09-20T20:58:18.316Z,38.47
2017-09-20T21:00:19.290Z,34.73
2017-09-20T21:02:20.253Z,33.10
2017-09-20T21:04:21.217Z,29.67
2017-09-20T21:06:22.923Z,31.67
2017-09-20T21:08:24.620Z,29.03
2017-09-20T21:10:25.593Z,43.03
2017-09-20T21:12:26.541Z,46.23
2017-09-20T21:14:27.509Z,47.40
2017-09-20T21:16:28.457Z,53.70
2017-09-20T21:18:29.410Z,59.93
2017-09-20T21:20:30.372Z,60.93
2017-09-20T21:22:32.087Z,44.43
2017-09-20T21:24:33.061Z,45.27
2017-09-20T21:26:34.013Z,51.60
2017-09-20T21:28:34.964Z,40.17
2017-09-20T21:30:35.925Z,44.50
2017-09-20T21:32:36.882Z,41.60
2017-09-20T21:34:37.841Z,46.10
2017-09-20T21:36:39.537Z,55.53
2017-09-20T21:38:40.488Z,58.07
2017-09-20T21:40:41.445Z,56.50
2017-09-20T21:42:42.404Z,51.33
2017-09-20T21:44:43.369Z,47.60
2017-09-20T21:46:44.312Z,57.22
2017-09-20T21:48:45.268Z,47.53
2017-09-20T21:50:46.233Z,38.23
2017-09-20T21:52:47.946Z,45.07
2017-09-20T21:54:48.981Z,50.23
2017-09-20T21:56:49.937Z,40.87
2017-09-20T21:58:50.903Z,50.77
2017-09-20T22:00:51.858Z,36.80
2017-09-20T22:02:52.819Z,45.90
2017-09-20T22:04:54.522Z,38.23
2017-09-20T22:06:55.477Z,40.67
2017-09-20T22:08:56.432Z,38.17
2017-09-20T22:10:57.392Z,48.77
2017-09-20T22:12:58.338Z,38.57
2017-09-20T22:15:11.560Z,38.67
2017-09-20T22:17:24.976Z,35.53
2017-09-20T22:19:38.364Z,21.53
2017-09-20T22:21:51.884Z,28.77
2017-09-20T22:24:05.322Z,28.43
2017-09-20T22:26:18.776Z,28.17
2017-09-20T22:28:19.803Z,25.10
2017-09-20T22:30:20.757Z,25.43
2017-09-20T22:32:21.718Z,24.40
2017-09-20T22:34:22.673Z,28.07
2017-09-20T22:36:23.629Z,29.57
2017-09-20T22:38:25.338Z,34.60
2017-09-20T22:40:26.301Z,30.83
2017-09-20T22:42:27.277Z,29.90
2017-09-20T22:44:28.988Z,28.97
2017-09-20T22:46:29.949Z,34.03
2017-09-20T22:48:30.908Z,40.20
2017-09-20T22:50:31.877Z,37.37
2017-09-20T22:52:33.589Z,38.00
2017-09-20T22:54:34.551Z,37.20
2017-09-20T22:56:35.512Z,36.47
2017-09-20T22:58:36.471Z,29.53
2017-09-20T23:00:37.420Z,29.40
2017-09-20T23:02:38.376Z,31.97
2017-09-20T23:04:40.069Z,30.00
2017-09-20T23:06:41.020Z,38.80
2017-09-20T23:08:41.981Z,36.53
2017-09-20T23:10:42.929Z,18.83
2017-09-20T23:12:43.877Z,30.47
2017-09-20T23:14:44.832Z,29.87
2017-09-20T23:16:45.786Z,29.93
2017-09-20T23:18:46.738Z,25.90
2017-09-20T23:20:47.686Z,22.63
2017-09-20T23:22:48.640Z,18.50
2017-09-20T23:30:01.723Z,25.50
2017-09-20T23:32:02.675Z,26.27
2017-09-20T23:34:04.400Z,24.57
2017-09-20T23:36:05.360Z,29.03
2017-09-20T23:38:06.317Z,28.57
2017-09-20T23:40:07.276Z,256.90
2017-09-20T23:42:08.980Z,32.50
2017-09-20T23:44:09.968Z,29.37
2017-09-20T23:46:10.920Z,24.33
2017-09-20T23:48:11.877Z,28.30
2017-09-20T23:50:12.843Z,28.37
2017-09-20T23:52:13.789Z,30.90
2017-09-20T23:54:14.746Z,32.83
2017-09-20T23:56:15.704Z,29.70
2017-09-20T23:58:16.653Z,33.30
